createdAt,value
2019-04-22T00:00:55.979Z,76.60
2019-04-22T00:03:36.098Z,77.30
2019-04-22T00:06:14.915Z,77.90
2019-04-22T00:08:49.159Z,77.00
2019-04-22T00:11:27.258Z,76.50
2019-04-22T00:14:00.685Z,77.20
2019-04-22T00:16:27.525Z,77.90
2019-04-22T00:21:25.768Z,78.30
2019-04-22T00:23:51.762Z,79.00
2019-04-22T00:26:26.070Z,78.80
2019-04-22T00:31:40.501Z,79.20
2019-04-22T00:34:11.141Z,79.50
2019-04-22T00:36:41.699Z,79.30
2019-04-22T00:39:16.393Z,79.60
2019-04-22T00:41:43.817Z,80.00
2019-04-22T00:44:15.374Z,81.00
2019-04-22T00:46:45.974Z,81.00
2019-04-22T00:50:01.592Z,81.50
2019-04-22T00:54:17.047Z,81.90
2019-04-22T00:56:42.319Z,82.40
2019-04-22T00:59:12.760Z,82.90
2019-04-22T01:01:47.085Z,83.40
2019-04-22T01:04:23.035Z,83.40
2019-04-22T01:06:41.628Z,83.60
2019-04-22T01:09:10.796Z,83.60
2019-04-22T01:11:37.781Z,83.60
2019-04-22T01:14:16.027Z,83.70
2019-04-22T01:16:43.111Z,83.50
2019-04-22T01:19:16.630Z,82.80
2019-04-22T01:24:12.121Z,83.80
2019-04-22T01:26:41.783Z,83.80
2019-04-22T01:29:09.447Z,84.50
2019-04-22T01:31:30.852Z,84.70
2019-04-22T01:34:11.409Z,85.30
2019-04-22T01:36:52.812Z,85.80
2019-04-22T01:39:21.530Z,86.00
2019-04-22T01:44:34.461Z,87.00
2019-04-22T01:47:00.050Z,87.40
2019-04-22T01:49:27.313Z,86.80
2019-04-22T01:52:11.434Z,86.50
2019-04-22T01:54:35.676Z,86.20
2019-04-22T01:56:57.117Z,86.10
2019-04-22T01:59:20.697Z,86.20
2019-04-22T02:01:57.412Z,86.50
2019-04-22T02:04:35.079Z,86.60
2019-04-22T02:07:01.929Z,86.90
2019-04-22T02:09:38.384Z,87.20
2019-04-22T02:12:00.212Z,86.80
2019-04-22T02:14:34.075Z,85.90
2019-04-22T02:17:01.327Z,85.90
2019-04-22T02:22:04.553Z,86.70
2019-04-22T02:24:35.266Z,87.50
2019-04-22T02:27:09.250Z,88.80
2019-04-22T02:29:34.732Z,88.80
2019-04-22T02:32:10.624Z,89.10
2019-04-22T02:34:40.190Z,90.00
2019-04-22T02:37:04.899Z,90.20
2019-04-22T02:42:10.656Z,90.70
2019-04-22T02:44:35.851Z,90.80
2019-04-22T02:47:20.560Z,91.30
2019-04-22T02:49:37.477Z,91.30
2019-04-22T02:52:09.394Z,91.60
2019-04-22T02:54:50.998Z,91.70
2019-04-22T02:57:14.055Z,92.20
2019-04-22T02:59:39.307Z,92.40
2019-04-22T03:02:14.418Z,92.70
2019-04-22T03:04:37.227Z,93.00
2019-04-22T03:07:05.538Z,93.20
2019-04-22T03:09:41.069Z,93.50
2019-04-22T03:14:46.019Z,94.00
2019-04-22T03:17:17.705Z,94.10
2019-04-22T03:19:59.266Z,94.50
2019-04-22T03:22:18.632Z,94.70
2019-04-22T03:25:25.746Z,94.90
2019-04-22T03:27:10.645Z,95.00
2019-04-22T03:37:49.446Z,95.10
2019-04-22T03:42:52.493Z,95.30
2019-04-22T03:45:19.258Z,95.40
2019-04-22T03:47:43.581Z,95.40
2019-04-22T03:50:25.239Z,95.60
2019-04-22T03:52:43.065Z,95.80
2019-04-22T03:57:49.676Z,96.20
2019-04-22T04:00:17.836Z,96.30
2019-04-22T04:02:45.825Z,96.40
2019-04-22T04:05:29.644Z,96.60
2019-04-22T04:12:51.182Z,96.80
2019-04-22T04:30:29.062Z,96.20
2019-04-22T04:35:28.242Z,96.20
2019-04-22T04:37:55.166Z,96.00
2019-04-22T04:40:20.757Z,96.00
2019-04-22T04:42:46.021Z,96.00
2019-04-22T04:50:18.263Z,96.40
2019-04-22T04:55:25.840Z,96.80
2019-04-22T04:58:01.047Z,97.00
2019-04-22T05:05:21.113Z,96.50
2019-04-22T05:15:18.387Z,94.80
2019-04-22T05:17:54.985Z,94.50
2019-04-22T05:20:26.943Z,94.20
2019-04-22T05:27:49.181Z,92.70
2019-04-22T05:30:23.565Z,92.40
2019-04-22T05:32:43.035Z,92.10
2019-04-22T05:35:14.334Z,92.10
2019-04-22T05:37:50.008Z,92.20
2019-04-22T05:40:20.260Z,92.10
2019-04-22T05:42:46.155Z,92.20
2019-04-22T05:45:14.880Z,91.90
2019-04-22T05:47:50.935Z,91.90
2019-04-22T05:50:13.189Z,91.30
2019-04-22T05:52:49.809Z,91.10
2019-04-22T05:55:28.507Z,90.80
2019-04-22T05:57:45.669Z,90.20
2019-04-22T06:00:23.122Z,90.00
2019-04-22T06:02:52.963Z,89.70
2019-04-22T06:05:17.155Z,90.50
2019-04-22T06:07:53.809Z,90.70
2019-04-22T06:10:26.315Z,90.60
2019-04-22T06:12:48.020Z,90.70
2019-04-22T06:15:27.158Z,90.70
2019-04-22T06:18:07.670Z,90.50
2019-04-22T06:20:33.846Z,90.20
2019-04-22T06:25:39.370Z,88.80
2019-04-22T06:28:07.154Z,88.00
2019-04-22T06:30:48.963Z,87.60
2019-04-22T06:33:01.138Z,87.80
2019-04-22T06:45:35.353Z,86.70
2019-04-22T06:48:08.032Z,85.10
2019-04-22T06:50:43.440Z,83.10
2019-04-22T06:53:09.003Z,81.70
2019-04-22T06:58:04.888Z,80.40
2019-04-22T07:05:43.406Z,79.30
2019-04-22T07:08:30.357Z,78.60
2019-04-22T07:10:43.435Z,77.70
2019-04-22T07:13:10.992Z,77.00
2019-04-22T07:15:50.362Z,77.10
2019-04-22T07:18:21.210Z,76.70
2019-04-22T07:20:48.087Z,76.30
2019-04-22T07:23:13.766Z,76.00
2019-04-22T07:30:46.062Z,71.00
2019-04-22T07:33:32.478Z,70.90
2019-04-22T07:35:56.133Z,68.80
2019-04-22T07:38:20.578Z,68.40
2019-04-22T07:40:50.357Z,68.10
2019-04-22T07:43:19.900Z,67.40
2019-04-22T07:46:00.676Z,66.70
2019-04-22T07:48:26.479Z,66.40
2019-04-22T07:51:05.550Z,64.30
2019-04-22T07:53:19.302Z,64.00
2019-04-22T07:55:50.826Z,62.20
2019-04-22T07:58:18.729Z,62.30
2019-04-22T08:00:43.784Z,61.80
2019-04-22T08:03:18.372Z,60.80
2019-04-22T08:05:58.547Z,61.80
2019-04-22T08:08:25.809Z,60.60
2019-04-22T08:10:49.957Z,58.80
2019-04-22T08:13:17.236Z,58.00
2019-04-22T08:15:55.321Z,56.90
2019-04-22T08:18:22.178Z,56.30
2019-04-22T08:23:23.754Z,55.30
2019-04-22T08:25:49.258Z,55.10
2019-04-22T08:28:26.303Z,53.90
2019-04-22T08:30:53.586Z,53.50
2019-04-22T08:33:22.115Z,52.00
2019-04-22T08:36:06.066Z,50.90
2019-04-22T08:38:31.298Z,47.80
2019-04-22T08:41:23.009Z,46.60
2019-04-22T08:46:17.077Z,44.70
2019-04-22T08:48:47.834Z,44.00
2019-04-22T08:51:23.412Z,42.60
2019-04-22T08:53:57.418Z,41.80
2019-04-22T08:56:29.479Z,42.00
2019-04-22T08:58:50.717Z,40.40
2019-04-22T09:01:17.733Z,41.80
2019-04-22T09:03:47.040Z,39.40
2019-04-22T09:08:50.194Z,38.00
2019-04-22T09:11:20.177Z,37.40
2019-04-22T09:13:49.850Z,37.90
2019-04-22T09:16:20.711Z,36.70
2019-04-22T09:18:52.731Z,35.70
2019-04-22T09:23:54.016Z,35.50
2019-04-22T09:26:23.945Z,34.60
2019-04-22T09:28:50.960Z,34.30
2019-04-22T09:31:19.544Z,33.60
2019-04-22T09:33:59.327Z,32.30
2019-04-22T09:36:24.356Z,31.50
2019-04-22T09:38:49.231Z,31.20
2019-04-22T09:41:18.711Z,31.60
2019-04-22T09:43:52.350Z,31.70
2019-04-22T09:46:25.004Z,31.50
2019-04-22T09:48:51.863Z,29.90
2019-04-22T09:51:18.942Z,29.60
2019-04-22T09:56:25.821Z,26.80
2019-04-22T09:58:50.801Z,26.70
2019-04-22T10:01:32.112Z,27.50
2019-04-22T10:03:56.488Z,27.20
2019-04-22T10:06:29.327Z,26.30
2019-04-22T10:09:27.187Z,25.50
2019-04-22T10:11:27.920Z,24.50
2019-04-22T10:13:53.714Z,24.90
2019-04-22T10:16:27.100Z,26.00
2019-04-22T10:18:54.463Z,25.90
2019-04-22T10:21:27.262Z,25.80
2019-04-22T10:23:53.267Z,25.10
2019-04-22T10:26:27.868Z,24.70
2019-04-22T10:31:23.824Z,24.60
2019-04-22T10:33:46.498Z,24.20
2019-04-22T10:35:59.362Z,24.20
2019-04-22T10:38:28.399Z,24.40
2019-04-22T10:40:58.363Z,24.50
2019-04-22T10:43:27.575Z,24.70
2019-04-22T10:45:56.149Z,24.50
2019-04-22T10:48:26.104Z,24.80
2019-04-22T10:50:54.832Z,25.20
2019-04-22T10:53:23.819Z,24.90
2019-04-22T10:55:52.376Z,25.00
2019-04-22T10:58:21.057Z,24.60
2019-04-22T11:00:52.255Z,23.70
2019-04-22T11:03:22.327Z,23.60
2019-04-22T11:05:53.788Z,23.60
2019-04-22T11:08:31.975Z,24.00
2019-04-22T11:11:07.160Z,24.60
2019-04-22T11:13:22.224Z,23.30
2019-04-22T11:15:51.038Z,22.60
2019-04-22T11:18:19.932Z,23.00
2019-04-22T11:20:49.534Z,22.90
2019-04-22T11:23:18.699Z,23.50
2019-04-22T11:25:47.988Z,22.50
2019-04-22T11:28:17.807Z,22.80
2019-04-22T11:30:48.119Z,22.50
2019-04-22T11:33:18.291Z,22.50
2019-04-22T11:35:47.959Z,22.60
2019-04-22T11:38:17.251Z,22.50
2019-04-22T11:40:51.734Z,22.20
2019-04-22T11:43:16.438Z,22.10
2019-04-22T11:45:45.155Z,22.50
2019-04-22T11:48:13.662Z,23.20
2019-04-22T11:50:42.199Z,21.10
2019-04-22T11:53:11.096Z,21.40
2019-04-22T11:55:40.610Z,22.10
2019-04-22T11:58:10.589Z,23.10
2019-04-22T12:00:41.008Z,23.20
2019-04-22T12:03:09.624Z,21.80
2019-04-22T12:05:39.622Z,21.40
2019-04-22T12:08:09.263Z,21.70
2019-04-22T12:10:46.890Z,21.30
2019-04-22T12:13:08.127Z,21.30
2019-04-22T12:15:37.303Z,21.40
2019-04-22T12:18:07.048Z,21.70
2019-04-22T12:20:36.859Z,22.00
2019-04-22T12:23:07.399Z,21.60
2019-04-22T12:25:47.915Z,20.90
2019-04-22T12:28:08.981Z,20.00
2019-04-22T12:30:37.494Z,19.90
2019-04-22T12:33:10.273Z,20.10
2019-04-22T12:35:36.984Z,20.00
2019-04-22T12:38:08.628Z,19.70
2019-04-22T12:40:44.726Z,19.50
2019-04-22T12:43:06.672Z,18.70
2019-04-22T12:45:36.345Z,19.20
2019-04-22T12:48:06.252Z,18.50
2019-04-22T12:50:40.240Z,18.30
2019-04-22T12:53:10.614Z,18.10
2019-04-22T12:55:35.654Z,17.50
2019-04-22T12:58:05.324Z,17.40
2019-04-22T13:00:34.434Z,16.60
2019-04-22T13:03:03.120Z,15.80
2019-04-22T13:05:33.291Z,15.70
2019-04-22T13:08:02.080Z,16.00
2019-04-22T13:10:41.683Z,16.00
2019-04-22T13:13:00.950Z,16.00
2019-04-22T13:15:30.715Z,15.80
2019-04-22T13:18:06.129Z,15.80
2019-04-22T13:20:30.433Z,15.40
2019-04-22T13:22:59.059Z,15.70
2019-04-22T13:25:29.962Z,15.50
2019-04-22T13:27:57.738Z,15.70
2019-04-22T13:30:28.280Z,15.70
2019-04-22T13:32:56.893Z,15.00
2019-04-22T13:35:26.169Z,14.90
2019-04-22T13:37:57.233Z,14.50
2019-04-22T13:40:26.517Z,14.30
2019-04-22T13:42:55.599Z,14.50
2019-04-22T13:45:25.549Z,15.00
2019-04-22T13:48:11.194Z,14.90
2019-04-22T13:53:42.966Z,14.70
2019-04-22T13:55:51.365Z,13.80
2019-04-22T13:58:08.249Z,13.50
2019-04-22T14:00:34.230Z,13.30
2019-04-22T14:03:18.264Z,13.70
2019-04-22T14:05:48.823Z,14.20
2019-04-22T14:08:18.457Z,14.20
2019-04-22T14:10:48.417Z,13.70
2019-04-22T14:13:16.993Z,13.70
2019-04-22T14:15:46.590Z,13.40
2019-04-22T14:18:15.185Z,13.30
2019-04-22T14:20:44.968Z,13.20
2019-04-22T14:23:14.305Z,13.10
2019-04-22T14:25:43.787Z,13.10
2019-04-22T14:28:17.369Z,12.90
2019-04-22T14:30:42.634Z,12.90
2019-04-22T14:33:12.160Z,12.80
2019-04-22T14:35:41.597Z,12.90
2019-04-22T14:38:10.199Z,13.00
2019-04-22T14:40:40.921Z,12.80
2019-04-22T14:43:31.723Z,12.90
2019-04-22T14:46:12.318Z,13.10
2019-04-22T14:48:37.340Z,13.40
2019-04-22T14:50:56.288Z,13.20
2019-04-22T14:53:32.314Z,13.20
2019-04-22T14:55:40.371Z,13.30
2019-04-22T14:58:09.111Z,13.80
2019-04-22T15:00:38.184Z,14.70
2019-04-22T15:03:08.187Z,15.30
2019-04-22T15:05:37.309Z,16.30
2019-04-22T15:08:07.071Z,16.40
2019-04-22T15:10:36.064Z,16.80
2019-04-22T15:13:05.457Z,17.10
2019-04-22T15:15:46.960Z,17.90
2019-04-22T15:18:17.545Z,17.80
2019-04-22T15:20:51.004Z,17.90
2019-04-22T15:23:17.948Z,19.00
2019-04-22T15:25:46.475Z,18.90
2019-04-22T15:28:15.395Z,19.50
2019-04-22T15:30:43.965Z,20.10
2019-04-22T15:33:12.562Z,20.60
2019-04-22T15:35:41.143Z,20.10
2019-04-22T15:38:11.141Z,21.20
2019-04-22T15:40:40.691Z,22.00
2019-04-22T15:43:10.841Z,22.00
2019-04-22T15:45:41.108Z,21.70
2019-04-22T15:48:10.274Z,21.50
2019-04-22T15:50:40.538Z,21.30
2019-04-22T15:53:09.764Z,21.60
2019-04-22T15:55:38.970Z,21.70
2019-04-22T15:58:08.066Z,20.80
2019-04-22T16:00:49.077Z,20.40
2019-04-22T16:03:09.121Z,20.20
2019-04-22T16:05:36.950Z,20.70
2019-04-22T16:08:06.693Z,20.70
2019-04-22T16:10:35.799Z,21.10
2019-04-22T16:13:12.548Z,21.50
2019-04-22T16:15:34.531Z,22.10
2019-04-22T16:18:04.796Z,21.50
2019-04-22T16:20:34.349Z,21.80
2019-04-22T16:23:10.453Z,22.20
2019-04-22T16:25:59.148Z,22.80
2019-04-22T16:28:29.116Z,23.40
2019-04-22T16:30:59.479Z,23.90
2019-04-22T16:33:28.226Z,24.70
2019-04-22T16:35:56.659Z,25.00
2019-04-22T16:38:25.094Z,25.10
2019-04-22T16:40:54.728Z,25.30
2019-04-22T16:43:24.609Z,25.90
2019-04-22T16:45:53.764Z,25.70
2019-04-22T16:48:22.747Z,26.20
2019-04-22T16:50:52.681Z,26.10
2019-04-22T16:53:23.204Z,26.00
2019-04-22T16:55:52.860Z,25.90
2019-04-22T16:58:22.980Z,26.10
2019-04-22T17:00:52.517Z,26.20
2019-04-22T17:03:40.575Z,26.70
2019-04-22T17:06:21.445Z,26.70
2019-04-22T17:08:50.907Z,26.70
2019-04-22T17:11:20.207Z,27.20
2019-04-22T17:13:50.180Z,27.40
2019-04-22T17:16:20.083Z,27.70
2019-04-22T17:18:49.952Z,27.60
2019-04-22T17:21:19.653Z,27.90
2019-04-22T17:23:49.665Z,27.70
2019-04-22T17:26:18.830Z,28.10
2019-04-22T17:28:47.420Z,28.10
2019-04-22T17:31:16.429Z,28.40
2019-04-22T17:33:45.011Z,28.20
2019-04-22T17:36:14.016Z,28.20
2019-04-22T17:38:50.857Z,28.70
2019-04-22T17:41:24.381Z,28.70
2019-04-22T17:44:15.277Z,28.80
2019-04-22T17:46:33.648Z,28.60
2019-04-22T17:49:12.277Z,28.50
2019-04-22T17:51:37.381Z,28.80
2019-04-22T17:54:09.448Z,29.00
2019-04-22T17:56:37.534Z,28.90
2019-04-22T17:59:10.221Z,28.70
2019-04-22T18:01:39.741Z,29.10
2019-04-22T18:03:56.921Z,29.20
2019-04-22T18:06:48.883Z,29.20
2019-04-22T18:09:12.387Z,29.60
2019-04-22T18:11:56.285Z,29.70
2019-04-22T18:14:30.053Z,29.60
2019-04-22T18:16:41.352Z,29.70
2019-04-22T18:19:11.587Z,29.80
2019-04-22T18:21:36.440Z,29.80
2019-04-22T18:24:01.392Z,29.90
2019-04-22T18:26:40.169Z,30.00
2019-04-22T18:29:11.515Z,30.10
2019-04-22T18:31:35.614Z,30.00
2019-04-22T18:34:08.797Z,29.90
2019-04-22T18:36:37.213Z,29.90
2019-04-22T18:39:20.650Z,30.10
2019-04-22T18:41:46.720Z,30.80
2019-04-22T18:44:17.956Z,30.40
2019-04-22T18:46:42.071Z,30.80
2019-04-22T18:49:10.953Z,30.80
2019-04-22T18:52:02.890Z,31.00
2019-04-22T18:54:31.045Z,31.30
2019-04-22T18:56:59.181Z,31.50
2019-04-22T18:59:19.501Z,31.50
2019-04-22T19:01:42.010Z,32.00
2019-04-22T19:04:18.886Z,32.10
2019-04-22T19:06:58.899Z,32.10
2019-04-22T19:09:36.174Z,32.80
2019-04-22T19:12:16.550Z,33.00
2019-04-22T19:14:43.719Z,33.40
2019-04-22T19:17:11.922Z,33.20
2019-04-22T19:22:03.976Z,33.20
2019-04-22T19:24:32.340Z,33.50
2019-04-22T19:27:02.292Z,33.20
2019-04-22T19:29:39.236Z,33.50
2019-04-22T19:32:04.055Z,33.60
2019-04-22T19:34:32.267Z,33.50
2019-04-22T19:37:11.102Z,33.60
2019-04-22T19:39:34.136Z,33.30
2019-04-22T19:42:14.958Z,33.30
2019-04-22T19:44:41.139Z,33.60
2019-04-22T19:49:48.118Z,33.70
2019-04-22T19:52:10.901Z,33.80
2019-04-22T19:54:40.876Z,33.60
2019-04-22T19:57:07.018Z,33.80
2019-04-22T19:59:36.380Z,33.90
2019-04-22T20:02:24.960Z,33.80
2019-04-22T20:05:01.815Z,33.80
2019-04-22T20:07:27.783Z,33.50
2019-04-22T20:10:00.157Z,33.60
2019-04-22T20:12:24.717Z,34.00
2019-04-22T20:14:55.706Z,33.80
2019-04-22T20:17:41.508Z,34.00
2019-04-22T20:20:06.371Z,33.60
2019-04-22T20:22:30.245Z,33.60
2019-04-22T20:24:51.320Z,33.60
2019-04-22T20:27:30.291Z,34.10
2019-04-22T20:30:04.718Z,34.00
2019-04-22T20:32:32.591Z,34.40
2019-04-22T20:35:02.703Z,34.40
2019-04-22T20:37:37.102Z,34.40
2019-04-22T20:40:00.843Z,34.40
2019-04-22T20:45:05.408Z,34.90
2019-04-22T20:47:29.172Z,35.40
2019-04-22T20:50:05.477Z,35.10
2019-04-22T20:52:38.689Z,35.20
2019-04-22T20:54:58.677Z,34.70
2019-04-22T20:57:34.631Z,34.50
2019-04-22T20:59:55.863Z,34.90
2019-04-22T21:02:29.071Z,34.70
2019-04-22T21:04:52.045Z,34.90
2019-04-22T21:07:26.724Z,35.10
2019-04-22T21:10:01.222Z,35.50
2019-04-22T21:12:24.940Z,35.10
2019-04-22T21:15:06.811Z,35.60
2019-04-22T21:17:34.899Z,35.70
2019-04-22T21:20:10.088Z,35.70
2019-04-22T21:22:33.849Z,36.10
2019-04-22T21:25:02.173Z,35.80
2019-04-22T21:27:40.808Z,35.90
2019-04-22T21:29:58.237Z,36.20
2019-04-22T21:32:34.518Z,36.00
2019-04-22T21:35:15.264Z,36.40
2019-04-22T21:40:10.702Z,37.10
2019-04-22T21:42:46.027Z,37.00
2019-04-22T21:45:04.739Z,37.10
2019-04-22T21:47:45.927Z,37.70
2019-04-22T21:50:31.009Z,37.60
2019-04-22T21:52:42.560Z,36.80
2019-04-22T21:55:10.191Z,37.10
2019-04-22T21:58:02.618Z,37.20
2019-04-22T22:03:11.328Z,37.30
2019-04-22T22:05:29.713Z,37.60
2019-04-22T22:07:55.864Z,37.60
2019-04-22T22:10:43.354Z,37.90
2019-04-22T22:13:06.298Z,38.10
2019-04-22T22:15:37.696Z,38.60
2019-04-22T22:18:02.280Z,38.40
2019-04-22T22:20:40.543Z,38.20
2019-04-22T22:23:16.100Z,38.00
2019-04-22T22:25:33.633Z,38.70
2019-04-22T22:28:29.410Z,38.60
2019-04-22T22:30:48.473Z,38.70
2019-04-22T22:33:10.496Z,38.80
2019-04-22T22:35:38.285Z,39.60
2019-04-22T22:38:11.975Z,39.60
2019-04-22T22:40:26.361Z,40.40
2019-04-22T22:42:53.471Z,39.90
2019-04-22T22:45:32.748Z,40.30
2019-04-22T22:48:18.858Z,40.20
2019-04-22T22:50:43.129Z,40.40
2019-04-22T22:53:25.599Z,40.20
2019-04-22T22:55:40.550Z,40.50
2019-04-22T22:58:17.704Z,40.80
2019-04-22T23:00:39.456Z,40.80
2019-04-22T23:05:54.985Z,40.80
2019-04-22T23:08:22.708Z,40.70
2019-04-22T23:10:55.609Z,41.10
2019-04-22T23:13:22.106Z,41.40
2019-04-22T23:15:40.510Z,41.10
2019-04-22T23:17:56.176Z,41.50
2019-04-22T23:20:31.024Z,42.10
2019-04-22T23:23:17.277Z,41.20
2019-04-22T23:26:03.857Z,41.60
2019-04-22T23:28:44.581Z,42.00
2019-04-22T23:31:14.372Z,41.10
2019-04-22T23:34:04.254Z,41.70
2019-04-22T23:36:38.370Z,42.10
2019-04-22T23:39:17.155Z,42.60
2019-04-22T23:41:51.129Z,43.10
2019-04-22T23:44:13.485Z,43.30
2019-04-22T23:46:41.183Z,42.50
2019-04-22T23:49:11.843Z,42.00
2019-04-22T23:51:57.568Z,42.00
2019-04-22T23:54:18.737Z,42.20
2019-04-22T23:56:43.456Z,41.90
2019-04-22T23:59:38.673Z,42.20
